createdAt,value
2018-10-16T00:00:07.370Z,99.90
2018-10-16T00:02:35.726Z,99.90
2018-10-16T00:05:04.446Z,99.90
2018-10-16T00:07:32.805Z,99.90
2018-10-16T00:10:01.209Z,99.90
2018-10-16T00:12:29.642Z,99.90
2018-10-16T00:14:58.031Z,99.90
2018-10-16T00:17:26.365Z,99.90
2018-10-16T00:19:54.728Z,99.90
2018-10-16T00:22:23.100Z,99.90
2018-10-16T00:24:51.448Z,99.90
2018-10-16T00:27:19.832Z,99.90
2018-10-16T00:29:48.236Z,99.90
2018-10-16T00:32:16.636Z,99.90
2018-10-16T00:34:44.971Z,99.90
2018-10-16T00:37:13.374Z,99.90
2018-10-16T00:39:41.724Z,99.90
2018-10-16T00:42:10.116Z,99.90
2018-10-16T00:44:38.536Z,99.90
2018-10-16T00:47:06.955Z,99.90
2018-10-16T00:49:35.269Z,99.90
2018-10-16T00:52:03.644Z,99.90
2018-10-16T00:54:32.005Z,99.90
2018-10-16T00:57:00.382Z,99.90
2018-10-16T00:59:28.743Z,99.90
2018-10-16T01:01:57.091Z,99.90
2018-10-16T01:04:25.480Z,99.90
2018-10-16T01:06:53.861Z,99.90
2018-10-16T01:09:22.246Z,99.90
2018-10-16T01:11:50.612Z,99.90
2018-10-16T01:14:18.972Z,99.90
2018-10-16T01:16:47.372Z,99.90
2018-10-16T01:19:15.841Z,99.90
2018-10-16T01:21:44.245Z,99.90
2018-10-16T01:24:12.646Z,99.90
2018-10-16T01:26:41.056Z,99.90
2018-10-16T01:29:09.452Z,99.90
2018-10-16T01:31:37.812Z,99.90
2018-10-16T01:34:06.192Z,99.90
2018-10-16T01:36:34.607Z,99.90
2018-10-16T01:39:03.024Z,99.90
2018-10-16T01:41:31.428Z,99.90
2018-10-16T01:43:59.801Z,99.90
2018-10-16T01:46:28.204Z,99.90
2018-10-16T01:48:56.560Z,99.90
2018-10-16T01:51:24.946Z,99.90
2018-10-16T01:53:53.365Z,99.90
2018-10-16T01:56:21.705Z,99.90
2018-10-16T01:58:50.057Z,99.90
2018-10-16T02:01:18.417Z,99.90
2018-10-16T02:03:46.737Z,99.90
2018-10-16T02:06:15.124Z,99.90
2018-10-16T02:08:43.497Z,99.90
2018-10-16T02:11:11.837Z,99.90
2018-10-16T02:13:40.195Z,99.90
2018-10-16T02:16:08.737Z,99.90
2018-10-16T02:18:37.141Z,99.90
2018-10-16T02:21:05.769Z,99.90
2018-10-16T02:23:34.148Z,99.90
2018-10-16T02:26:02.512Z,99.90
2018-10-16T02:28:30.869Z,99.90
2018-10-16T02:30:59.220Z,99.90
2018-10-16T02:33:27.577Z,99.90
2018-10-16T02:35:55.930Z,99.90
2018-10-16T02:38:24.233Z,99.90
2018-10-16T02:40:52.616Z,99.90
2018-10-16T02:43:20.965Z,99.90
2018-10-16T02:45:49.535Z,99.90
2018-10-16T02:48:17.876Z,99.90
2018-10-16T02:50:46.237Z,99.90
2018-10-16T02:53:14.569Z,99.90
2018-10-16T02:55:42.964Z,99.90
2018-10-16T02:58:11.276Z,99.90
2018-10-16T03:00:39.667Z,99.90
2018-10-16T03:03:08.011Z,99.90
2018-10-16T03:05:36.405Z,99.90
2018-10-16T03:08:04.804Z,99.90
2018-10-16T03:10:33.148Z,99.90
2018-10-16T03:13:01.515Z,99.90
2018-10-16T03:15:29.887Z,99.90
2018-10-16T03:17:58.260Z,99.90
2018-10-16T03:20:26.636Z,99.90
2018-10-16T03:22:54.933Z,99.90
2018-10-16T03:25:23.296Z,99.90
2018-10-16T03:27:51.668Z,99.90
2018-10-16T03:30:20.108Z,99.90
2018-10-16T03:32:48.457Z,99.90
2018-10-16T03:35:16.845Z,99.90
2018-10-16T03:37:45.196Z,99.90
2018-10-16T03:40:13.603Z,99.90
2018-10-16T03:42:42.528Z,99.90
2018-10-16T03:45:11.992Z,99.90
2018-10-16T03:47:40.946Z,99.90
2018-10-16T03:50:09.876Z,99.90
2018-10-16T03:52:38.191Z,99.90
2018-10-16T03:55:06.885Z,99.90
2018-10-16T03:57:35.257Z,99.90
2018-10-16T04:00:03.750Z,99.90
2018-10-16T04:02:32.120Z,99.90
2018-10-16T04:05:00.500Z,99.90
2018-10-16T04:07:28.869Z,99.90
2018-10-16T04:09:57.248Z,99.90
2018-10-16T04:12:25.603Z,99.90
2018-10-16T04:14:53.943Z,99.90
2018-10-16T04:17:22.337Z,99.90
2018-10-16T04:19:50.752Z,99.90
2018-10-16T04:22:19.136Z,99.90
2018-10-16T04:24:47.515Z,99.90
2018-10-16T04:27:15.885Z,99.90
2018-10-16T04:29:44.249Z,99.90
2018-10-16T04:32:12.585Z,99.90
2018-10-16T04:34:40.942Z,99.90
2018-10-16T04:37:10.485Z,99.90
2018-10-16T04:39:55.960Z,99.90
2018-10-16T04:42:38.318Z,99.90
2018-10-16T04:45:07.029Z,99.90
2018-10-16T04:47:35.408Z,99.90
2018-10-16T04:50:03.768Z,99.90
2018-10-16T04:52:32.129Z,99.90
2018-10-16T04:55:00.510Z,99.90
2018-10-16T04:57:28.833Z,99.90
2018-10-16T04:59:57.184Z,99.90
2018-10-16T05:02:25.573Z,99.90
2018-10-16T05:04:53.905Z,99.90
2018-10-16T05:07:23.160Z,99.90
2018-10-16T05:09:51.548Z,99.90
2018-10-16T05:12:19.923Z,99.90
2018-10-16T05:14:48.252Z,99.90
2018-10-16T05:17:16.639Z,99.90
2018-10-16T05:19:44.989Z,99.90
2018-10-16T05:22:13.333Z,99.90
2018-10-16T05:24:41.661Z,99.90
2018-10-16T05:27:10.039Z,99.90
2018-10-16T05:29:38.372Z,99.90
2018-10-16T05:32:06.760Z,99.90
2018-10-16T05:34:35.147Z,99.90
2018-10-16T05:37:03.523Z,99.90
2018-10-16T05:39:31.863Z,99.90
2018-10-16T05:42:00.217Z,99.90
2018-10-16T05:44:28.595Z,99.90
2018-10-16T05:46:56.953Z,99.90
2018-10-16T05:49:25.324Z,99.90
2018-10-16T05:51:53.880Z,99.90
2018-10-16T05:54:22.424Z,99.90
2018-10-16T05:56:50.682Z,99.90
2018-10-16T05:59:18.997Z,99.90
2018-10-16T06:01:47.324Z,99.90
2018-10-16T06:04:15.664Z,99.90
2018-10-16T06:06:44.024Z,99.90
2018-10-16T06:09:12.412Z,99.90
2018-10-16T06:11:40.789Z,99.90
2018-10-16T06:14:09.153Z,99.90
2018-10-16T06:16:37.503Z,99.90
2018-10-16T06:19:05.876Z,99.90
2018-10-16T06:21:34.192Z,99.90
2018-10-16T06:24:02.548Z,99.90
2018-10-16T06:26:30.932Z,99.90
2018-10-16T06:28:59.251Z,99.90
2018-10-16T06:31:27.617Z,99.90
2018-10-16T06:33:56.007Z,99.90
2018-10-16T06:36:24.363Z,99.90
2018-10-16T06:38:52.712Z,99.90
2018-10-16T06:41:21.209Z,99.90
2018-10-16T06:43:49.487Z,99.90
2018-10-16T06:46:17.849Z,99.90
2018-10-16T06:48:46.668Z,99.90
2018-10-16T06:51:14.562Z,99.90
2018-10-16T06:53:43.017Z,99.90
2018-10-16T06:56:11.391Z,99.90
2018-10-16T06:58:39.724Z,99.90
2018-10-16T07:01:08.061Z,99.90
2018-10-16T07:03:36.395Z,99.90
2018-10-16T07:06:04.804Z,99.90
2018-10-16T07:08:33.150Z,99.90
2018-10-16T07:11:01.498Z,99.90
2018-10-16T07:13:29.855Z,99.90
2018-10-16T07:15:58.236Z,99.90
2018-10-16T07:18:26.613Z,99.90
2018-10-16T07:20:54.960Z,99.90
2018-10-16T07:23:23.350Z,99.90
2018-10-16T07:25:51.652Z,99.90
2018-10-16T07:28:19.997Z,99.90
2018-10-16T07:30:48.327Z,99.90
2018-10-16T07:33:16.772Z,99.90
2018-10-16T07:35:45.129Z,99.90
2018-10-16T07:38:13.687Z,99.90
2018-10-16T07:40:41.858Z,99.90
2018-10-16T07:43:10.168Z,99.90
2018-10-16T07:45:38.570Z,99.90
2018-10-16T07:48:06.960Z,99.90
2018-10-16T07:50:35.314Z,99.90
2018-10-16T07:53:03.681Z,99.90
2018-10-16T07:55:32.139Z,99.90
2018-10-16T07:58:00.772Z,99.90
2018-10-16T08:00:29.212Z,99.90
2018-10-16T08:02:57.486Z,99.90
2018-10-16T08:05:25.819Z,99.90
2018-10-16T08:07:54.188Z,99.90
2018-10-16T08:10:22.544Z,99.90
2018-10-16T08:12:50.944Z,99.90
2018-10-16T08:15:19.324Z,99.90
2018-10-16T08:17:47.688Z,99.90
2018-10-16T08:20:16.033Z,99.90
2018-10-16T08:22:44.425Z,99.90
2018-10-16T08:25:12.778Z,99.90
2018-10-16T08:27:41.157Z,99.90
2018-10-16T08:30:10.158Z,99.90
2018-10-16T08:32:38.556Z,99.90
2018-10-16T08:35:06.925Z,99.90
2018-10-16T08:39:49.218Z,99.90
2018-10-16T08:43:26.813Z,99.90
2018-10-16T08:46:06.513Z,99.90
2018-10-16T08:48:47.030Z,99.90
2018-10-16T08:51:26.686Z,99.90
2018-10-16T08:53:55.348Z,99.90
2018-10-16T08:56:23.704Z,99.90
2018-10-16T08:58:52.094Z,99.90
2018-10-16T09:01:20.472Z,99.90
2018-10-16T09:03:48.810Z,99.90
2018-10-16T09:06:17.173Z,99.90
2018-10-16T09:08:45.531Z,99.90
2018-10-16T09:11:13.945Z,99.90
2018-10-16T09:13:42.364Z,99.90
2018-10-16T09:16:10.761Z,99.90
2018-10-16T09:18:39.120Z,99.90
2018-10-16T09:21:07.515Z,99.90
2018-10-16T09:23:36.060Z,99.90
2018-10-16T09:26:04.775Z,99.90
2018-10-16T09:28:39.109Z,99.90
2018-10-16T09:31:07.554Z,99.90
2018-10-16T09:33:35.832Z,99.90
2018-10-16T09:36:04.256Z,99.90
2018-10-16T09:38:32.606Z,99.90
2018-10-16T09:41:01.024Z,99.90
2018-10-16T09:43:29.348Z,99.90
2018-10-16T09:45:57.727Z,99.90
2018-10-16T09:48:26.118Z,99.90
2018-10-16T09:50:54.487Z,99.90
2018-10-16T09:53:22.864Z,99.90
2018-10-16T09:55:51.231Z,99.90
2018-10-16T09:58:19.628Z,99.90
2018-10-16T10:00:54.185Z,99.90
2018-10-16T10:03:22.527Z,99.90
2018-10-16T10:05:50.919Z,99.90
2018-10-16T10:08:19.325Z,99.90
2018-10-16T10:10:47.727Z,99.90
2018-10-16T10:13:16.133Z,99.90
2018-10-16T10:15:44.524Z,99.90
2018-10-16T10:18:12.910Z,99.90
2018-10-16T10:20:41.274Z,99.90
2018-10-16T10:23:09.657Z,99.90
2018-10-16T10:25:38.082Z,99.90
2018-10-16T10:28:06.502Z,99.90
2018-10-16T10:30:35.109Z,99.90
2018-10-16T10:33:03.490Z,99.90
2018-10-16T10:35:32.042Z,99.90
2018-10-16T10:38:00.360Z,99.90
2018-10-16T10:40:28.740Z,99.90
2018-10-16T10:42:57.104Z,99.90
2018-10-16T10:45:25.420Z,99.90
2018-10-16T10:47:53.852Z,99.90
2018-10-16T10:50:22.484Z,99.90
2018-10-16T10:52:50.623Z,99.90
2018-10-16T10:55:18.943Z,99.90
2018-10-16T10:57:47.276Z,99.90
2018-10-16T11:00:15.649Z,99.90
2018-10-16T11:02:45.619Z,99.90
2018-10-16T11:05:13.965Z,99.90
2018-10-16T11:07:42.329Z,99.90
2018-10-16T11:10:12.224Z,99.90
2018-10-16T11:12:41.103Z,99.90
2018-10-16T11:15:09.666Z,99.90
2018-10-16T11:17:38.427Z,99.90
2018-10-16T11:20:07.950Z,99.90
2018-10-16T11:22:36.340Z,99.90
2018-10-16T11:25:05.851Z,99.90
2018-10-16T11:27:34.212Z,99.90
2018-10-16T11:30:02.639Z,99.90
2018-10-16T11:32:30.929Z,99.90
2018-10-16T11:34:59.343Z,99.90
2018-10-16T11:37:27.720Z,99.90
2018-10-16T11:39:56.072Z,99.90
2018-10-16T11:42:24.425Z,99.90
2018-10-16T11:44:52.798Z,99.90
2018-10-16T11:47:21.110Z,99.90
2018-10-16T11:49:49.484Z,99.90
2018-10-16T11:52:17.951Z,99.90
2018-10-16T11:54:46.517Z,99.90
2018-10-16T11:57:14.849Z,99.90
2018-10-16T11:59:43.233Z,99.90
2018-10-16T12:02:11.710Z,99.90
2018-10-16T12:04:40.044Z,99.90
2018-10-16T12:07:08.484Z,99.90
2018-10-16T12:09:36.823Z,99.90
2018-10-16T12:12:05.214Z,99.90
2018-10-16T12:14:33.557Z,99.90
2018-10-16T12:17:05.957Z,99.90
2018-10-16T12:19:37.849Z,98.80
2018-10-16T12:22:06.602Z,97.40
2018-10-16T12:24:35.004Z,95.60
2018-10-16T12:27:03.442Z,96.40
2018-10-16T12:29:31.761Z,97.20
2018-10-16T12:32:00.172Z,96.80
2018-10-16T12:34:28.533Z,97.00
2018-10-16T12:36:56.897Z,95.80
2018-10-16T12:39:25.252Z,95.90
2018-10-16T12:41:53.604Z,94.50
2018-10-16T12:44:22.013Z,95.50
2018-10-16T12:46:50.430Z,93.70
2018-10-16T12:49:18.773Z,94.70
2018-10-16T12:51:47.120Z,94.20
2018-10-16T12:54:15.526Z,92.70
2018-10-16T12:56:43.858Z,92.70
2018-10-16T12:59:12.252Z,91.40
2018-10-16T13:01:40.521Z,92.20
2018-10-16T13:04:08.925Z,91.30
2018-10-16T13:06:37.301Z,91.00
2018-10-16T13:09:08.343Z,90.60
2018-10-16T13:11:36.672Z,90.10
2018-10-16T13:14:05.092Z,90.10
2018-10-16T13:16:33.414Z,88.40
2018-10-16T13:19:01.750Z,87.20
2018-10-16T13:21:30.133Z,84.70
2018-10-16T13:23:58.531Z,83.50
2018-10-16T13:26:26.919Z,87.90
2018-10-16T13:28:55.342Z,83.70
2018-10-16T13:31:23.644Z,82.40
2018-10-16T13:33:52.012Z,81.40
2018-10-16T13:36:20.308Z,81.50
2018-10-16T13:38:48.680Z,84.70
2018-10-16T13:41:17.022Z,81.40
2018-10-16T13:43:45.436Z,79.60
2018-10-16T13:46:13.823Z,79.50
2018-10-16T13:48:42.173Z,79.30
2018-10-16T13:51:10.520Z,82.40
2018-10-16T13:53:38.855Z,82.50
2018-10-16T13:56:07.567Z,81.90
2018-10-16T13:58:35.892Z,79.30
2018-10-16T14:01:04.595Z,79.90
2018-10-16T14:03:32.957Z,81.80
2018-10-16T14:06:01.318Z,80.20
2018-10-16T14:08:29.700Z,79.90
2018-10-16T14:10:58.066Z,82.60
2018-10-16T14:13:26.592Z,82.10
2018-10-16T14:15:54.971Z,81.70
2018-10-16T14:18:23.300Z,80.80
2018-10-16T14:20:51.641Z,80.30
2018-10-16T14:23:20.015Z,81.80
2018-10-16T14:25:48.364Z,80.70
2018-10-16T14:28:16.850Z,81.90
2018-10-16T14:30:45.076Z,82.10
2018-10-16T14:33:13.406Z,83.30
2018-10-16T14:35:41.777Z,84.80
2018-10-16T14:38:10.161Z,84.10
2018-10-16T14:40:38.525Z,85.60
2018-10-16T14:43:06.914Z,85.90
2018-10-16T14:45:35.284Z,87.30
2018-10-16T14:48:03.760Z,88.10
2018-10-16T14:50:32.093Z,88.50
2018-10-16T14:53:00.430Z,88.20
2018-10-16T14:55:28.809Z,88.20
2018-10-16T14:57:57.218Z,89.00
2018-10-16T15:00:25.526Z,90.20
2018-10-16T15:02:53.908Z,90.30
2018-10-16T15:05:22.269Z,90.70
2018-10-16T15:07:50.631Z,90.60
2018-10-16T15:10:19.088Z,90.90
2018-10-16T15:12:47.426Z,91.00
2018-10-16T15:15:15.840Z,91.10
2018-10-16T15:17:44.237Z,91.60
2018-10-16T15:20:12.740Z,91.90
2018-10-16T15:22:41.002Z,92.00
2018-10-16T15:25:09.920Z,92.10
2018-10-16T15:27:38.303Z,92.30
2018-10-16T15:30:08.005Z,92.60
2018-10-16T15:32:36.466Z,93.30
2018-10-16T15:35:05.757Z,93.80
2018-10-16T15:37:34.203Z,95.40
2018-10-16T15:40:02.663Z,94.50
2018-10-16T15:42:30.940Z,95.30
2018-10-16T15:44:59.327Z,95.90
2018-10-16T15:47:27.712Z,96.80
2018-10-16T15:49:56.060Z,97.20
2018-10-16T15:52:24.741Z,97.30
2018-10-16T15:54:53.084Z,97.70
2018-10-16T15:57:21.439Z,98.20
2018-10-16T15:59:49.816Z,99.60
2018-10-16T16:02:18.232Z,99.90
2018-10-16T16:04:46.561Z,99.90
2018-10-16T16:07:14.933Z,99.90
2018-10-16T16:09:43.281Z,99.90
2018-10-16T16:12:11.782Z,99.90
2018-10-16T16:14:40.083Z,99.90
2018-10-16T16:17:08.453Z,99.90
2018-10-16T16:19:36.818Z,99.90
2018-10-16T16:22:05.607Z,99.90
2018-10-16T16:24:33.932Z,99.90
2018-10-16T16:27:02.565Z,99.90
2018-10-16T16:29:31.009Z,99.90
2018-10-16T16:31:59.449Z,99.90
2018-10-16T16:34:27.814Z,99.90
2018-10-16T16:36:56.212Z,99.90
2018-10-16T16:39:24.615Z,99.90
2018-10-16T16:41:53.036Z,99.90
2018-10-16T16:44:21.455Z,99.90
2018-10-16T16:46:49.869Z,99.90
2018-10-16T16:49:18.255Z,99.90
2018-10-16T16:51:46.679Z,99.90
2018-10-16T16:54:15.040Z,99.90
2018-10-16T16:56:43.440Z,99.90
2018-10-16T16:59:11.885Z,99.90
2018-10-16T17:01:40.249Z,99.90
2018-10-16T17:04:08.677Z,99.90
2018-10-16T17:06:37.076Z,99.90
2018-10-16T17:09:08.971Z,99.90
2018-10-16T17:11:37.948Z,99.90
2018-10-16T17:14:06.742Z,99.90
2018-10-16T17:16:37.119Z,99.90
2018-10-16T17:19:06.019Z,99.90
2018-10-16T17:21:34.561Z,99.90
2018-10-16T17:24:02.938Z,99.90
2018-10-16T17:26:31.316Z,99.90
2018-10-16T17:28:59.706Z,99.90
2018-10-16T17:31:28.098Z,99.90
2018-10-16T17:33:56.538Z,99.90
2018-10-16T17:36:24.883Z,99.90
2018-10-16T17:38:53.264Z,99.90
2018-10-16T17:41:21.680Z,99.90
2018-10-16T17:43:50.053Z,99.90
2018-10-16T17:46:18.453Z,99.90
2018-10-16T17:48:46.829Z,99.90
2018-10-16T17:51:15.214Z,99.90
2018-10-16T17:53:43.612Z,99.90
2018-10-16T17:56:12.061Z,99.90
2018-10-16T17:58:40.441Z,99.90
2018-10-16T18:01:08.819Z,99.90
2018-10-16T18:03:37.252Z,99.90
2018-10-16T18:06:05.777Z,99.90
2018-10-16T18:08:34.181Z,99.90
2018-10-16T18:11:02.661Z,99.90
2018-10-16T18:13:31.179Z,99.90
2018-10-16T18:15:59.649Z,99.90
2018-10-16T18:18:28.160Z,99.90
2018-10-16T18:20:56.844Z,99.90
2018-10-16T18:23:25.315Z,99.90
2018-10-16T18:25:54.175Z,99.90
2018-10-16T18:28:22.549Z,99.90
2018-10-16T18:30:50.965Z,99.90
2018-10-16T18:33:19.415Z,99.90
2018-10-16T18:35:47.785Z,99.90
2018-10-16T18:38:16.569Z,99.90
2018-10-16T18:40:45.071Z,99.90
2018-10-16T18:43:13.432Z,99.90
2018-10-16T18:45:41.945Z,99.90
2018-10-16T18:48:10.365Z,99.90
2018-10-16T18:50:38.762Z,99.90
2018-10-16T18:53:07.202Z,99.90
2018-10-16T18:55:35.602Z,99.90
2018-10-16T18:58:03.992Z,99.90
2018-10-16T19:00:32.427Z,99.90
2018-10-16T19:03:00.901Z,99.90
2018-10-16T19:05:29.265Z,99.90
2018-10-16T19:07:57.960Z,99.90
2018-10-16T19:10:26.681Z,99.90
2018-10-16T19:12:55.335Z,99.90
2018-10-16T19:15:23.826Z,99.90
2018-10-16T19:17:52.528Z,99.90
2018-10-16T19:20:20.948Z,99.90
2018-10-16T19:22:49.398Z,99.90
2018-10-16T19:25:19.703Z,99.90
2018-10-16T19:27:48.866Z,99.90
2018-10-16T19:30:18.633Z,99.90
2018-10-16T19:32:48.385Z,99.90
2018-10-16T19:35:18.967Z,99.90
2018-10-16T19:37:48.732Z,99.90
2018-10-16T19:40:17.144Z,99.90
2018-10-16T19:42:45.532Z,99.90
2018-10-16T19:45:14.451Z,99.90
2018-10-16T19:47:44.738Z,99.90
2018-10-16T19:50:14.877Z,99.90
2018-10-16T19:52:44.306Z,99.90
2018-10-16T19:55:14.068Z,99.90
2018-10-16T19:57:43.677Z,99.90
2018-10-16T20:00:12.519Z,99.90
2018-10-16T20:02:42.313Z,99.90
2018-10-16T20:05:12.796Z,99.90
2018-10-16T20:07:42.620Z,99.90
2018-10-16T20:10:12.973Z,99.90
2018-10-16T20:12:42.829Z,99.90
2018-10-16T20:15:13.244Z,99.90
2018-10-16T20:17:43.169Z,99.90
2018-10-16T20:20:13.620Z,99.90
2018-10-16T20:22:44.727Z,99.90
2018-10-16T20:25:14.517Z,99.90
2018-10-16T20:27:45.255Z,99.90
2018-10-16T20:30:13.728Z,99.90
2018-10-16T20:32:42.261Z,99.90
2018-10-16T20:35:10.749Z,99.90
2018-10-16T20:37:39.286Z,99.90
2018-10-16T20:40:07.945Z,99.90
2018-10-16T20:42:36.916Z,99.90
2018-10-16T20:45:05.492Z,99.90
2018-10-16T20:47:34.031Z,99.90
2018-10-16T20:50:02.320Z,99.90
2018-10-16T20:52:30.698Z,99.90
2018-10-16T20:54:59.111Z,99.90
2018-10-16T20:57:27.578Z,99.90
2018-10-16T20:59:56.516Z,99.90
2018-10-16T21:02:24.950Z,99.90
2018-10-16T21:04:53.441Z,99.90
2018-10-16T21:07:21.763Z,99.90
2018-10-16T21:09:50.137Z,99.90
2018-10-16T21:12:18.505Z,99.90
2018-10-16T21:14:46.895Z,99.90
2018-10-16T21:17:15.260Z,99.90
2018-10-16T21:19:43.641Z,99.90
2018-10-16T21:22:12.014Z,99.90
2018-10-16T21:24:40.363Z,99.90
2018-10-16T21:27:10.886Z,99.90
2018-10-16T21:29:39.228Z,99.90
2018-10-16T21:32:08.266Z,99.90
2018-10-16T21:34:36.641Z,99.90
2018-10-16T21:37:05.191Z,99.90
2018-10-16T21:39:33.496Z,99.90
2018-10-16T21:42:01.860Z,99.90
2018-10-16T21:44:30.177Z,99.90
2018-10-16T21:46:58.558Z,99.90
2018-10-16T21:49:26.853Z,99.90
2018-10-16T21:51:55.219Z,99.90
2018-10-16T21:54:23.553Z,99.90
2018-10-16T21:56:51.921Z,99.90
2018-10-16T21:59:20.383Z,99.90
2018-10-16T22:01:54.020Z,99.90
2018-10-16T22:04:22.358Z,99.90
2018-10-16T22:06:50.749Z,99.90
2018-10-16T22:09:19.072Z,99.90
2018-10-16T22:11:47.441Z,99.90
2018-10-16T22:14:15.789Z,99.90
2018-10-16T22:16:44.141Z,99.90
2018-10-16T22:19:12.555Z,99.90
2018-10-16T22:21:40.868Z,99.90
2018-10-16T22:24:09.220Z,99.90
2018-10-16T22:26:37.556Z,99.90
2018-10-16T22:29:06.005Z,99.90
2018-10-16T22:31:34.301Z,99.90
2018-10-16T22:34:02.672Z,99.90
2018-10-16T22:36:31.240Z,99.90
2018-10-16T22:38:59.586Z,99.90
2018-10-16T22:41:27.964Z,99.90
2018-10-16T22:43:56.361Z,99.90
2018-10-16T22:46:24.744Z,99.90
2018-10-16T22:48:53.185Z,99.90
2018-10-16T22:51:21.518Z,99.90
2018-10-16T22:53:49.938Z,99.90
2018-10-16T22:56:18.305Z,99.90
2018-10-16T22:58:46.648Z,99.90
2018-10-16T23:01:15.000Z,99.90
2018-10-16T23:03:43.393Z,99.90
2018-10-16T23:06:11.723Z,99.90
2018-10-16T23:08:40.076Z,99.90
2018-10-16T23:11:08.436Z,99.90
2018-10-16T23:13:36.755Z,99.90
2018-10-16T23:16:05.137Z,99.90
2018-10-16T23:18:33.501Z,99.90
2018-10-16T23:21:01.836Z,99.90
2018-10-16T23:23:30.212Z,99.90
2018-10-16T23:25:58.608Z,99.90
2018-10-16T23:28:26.973Z,99.90
2018-10-16T23:30:55.340Z,99.90
2018-10-16T23:33:23.655Z,99.90
2018-10-16T23:35:51.990Z,99.90
2018-10-16T23:38:20.368Z,99.90
2018-10-16T23:40:48.714Z,99.90
2018-10-16T23:43:17.153Z,99.90
2018-10-16T23:45:45.516Z,99.90
2018-10-16T23:48:13.816Z,99.90
2018-10-16T23:50:42.169Z,99.90
2018-10-16T23:53:10.617Z,99.90
2018-10-16T23:55:38.880Z,99.90
2018-10-16T23:58:07.253Z,99.90
